sensor_id;sensor_type;location;lat;lon;timestamp;pressure;altitude;pressure_sealevel;temperature;humidity
71966;BME280;59836;52.132;5.442;2023-07-02T00:02:24;100681.50;;;16.79;93.46
71966;BME280;59836;52.132;5.442;2023-07-02T00:04:51;100680.84;;;16.74;93.25
71966;BME280;59836;52.132;5.442;2023-07-02T00:07:29;100669.19;;;16.68;93.30
71966;BME280;59836;52.132;5.442;2023-07-02T00:10:14;100661.13;;;16.63;93.48
71966;BME280;59836;52.132;5.442;2023-07-02T00:13:00;100660.13;;;16.59;93.91
71966;BME280;59836;52.132;5.442;2023-07-02T00:15:27;100677.19;;;16.56;93.96
71966;BME280;59836;52.132;5.442;2023-07-02T00:18:02;100678.63;;;16.53;94.23
71966;BME280;59836;52.132;5.442;2023-07-02T00:20:29;100680.06;;;16.50;93.92
71966;BME280;59836;52.132;5.442;2023-07-02T00:22:56;100691.63;;;16.47;94.30
71966;BME280;59836;52.132;5.442;2023-07-02T00:25:22;100696.31;;;16.47;94.23
71966;BME280;59836;52.132;5.442;2023-07-02T00:27:53;100696.13;;;16.43;94.42
71966;BME280;59836;52.132;5.442;2023-07-02T00:30:27;100700.00;;;16.42;94.73
71966;BME280;59836;52.132;5.442;2023-07-02T00:32:54;100696.78;;;16.40;94.54
71966;BME280;59836;52.132;5.442;2023-07-02T00:35:32;100703.88;;;16.41;94.73
71966;BME280;59836;52.132;5.442;2023-07-02T00:38:14;100703.88;;;16.41;94.52
71966;BME280;59836;52.132;5.442;2023-07-02T00:40:40;100698.38;;;16.41;94.96
71966;BME280;59836;52.132;5.442;2023-07-02T00:43:09;100703.88;;;16.41;95.23
71966;BME280;59836;52.132;5.442;2023-07-02T00:45:40;100697.88;;;16.39;95.41
71966;BME280;59836;52.132;5.442;2023-07-02T00:48:06;100703.38;;;16.39;95.24
71966;BME280;59836;52.132;5.442;2023-07-02T00:50:33;100700.63;;;16.39;95.29
71966;BME280;59836;52.132;5.442;2023-07-02T00:53:00;100701.75;;;16.38;95.15
71966;BME280;59836;52.132;5.442;2023-07-02T00:55:36;100706.72;;;16.36;94.73
71966;BME280;59836;52.132;5.442;2023-07-02T00:58:03;100711.72;;;16.34;94.96
71966;BME280;59836;52.132;5.442;2023-07-02T01:00:29;100708.78;;;16.30;94.53
71966;BME280;59836;52.132;5.442;2023-07-02T01:03:03;100710.22;;;16.28;93.81
71966;BME280;59836;52.132;5.442;2023-07-02T01:05:49;100706.00;;;16.21;93.62
71966;BME280;59836;52.132;5.442;2023-07-02T01:08:16;100712.06;;;16.18;93.95
71966;BME280;59836;52.132;5.442;2023-07-02T01:10:43;100706.72;;;16.13;93.38
71966;BME280;59836;52.132;5.442;2023-07-02T01:13:21;100719.91;;;16.11;93.41
71966;BME280;59836;52.132;5.442;2023-07-02T01:15:50;100724.69;;;16.05;93.18
71966;BME280;59836;52.132;5.442;2023-07-02T01:18:17;100717.91;;;16.03;93.44
71966;BME280;59836;52.132;5.442;2023-07-02T01:20:45;100714.69;;;16.01;93.37
71966;BME280;59836;52.132;5.442;2023-07-02T01:23:18;100723.50;;;15.98;93.52
71966;BME280;59836;52.132;5.442;2023-07-02T01:25:51;100724.13;;;15.94;93.44
71966;BME280;59836;52.132;5.442;2023-07-02T01:28:43;100721.19;;;15.91;93.40
71966;BME280;59836;52.132;5.442;2023-07-02T01:31:10;100721.00;;;15.87;92.97
71966;BME280;59836;52.132;5.442;2023-07-02T01:33:58;100722.72;;;15.83;92.79
71966;BME280;59836;52.132;5.442;2023-07-02T01:36:24;100717.34;;;15.78;92.54
71966;BME280;59836;52.132;5.442;2023-07-02T01:39:17;100728.41;;;15.73;92.31
71966;BME280;59836;52.132;5.442;2023-07-02T01:42:06;100728.00;;;15.65;92.23
71966;BME280;59836;52.132;5.442;2023-07-02T01:44:33;100726.50;;;15.59;92.24
71966;BME280;59836;52.132;5.442;2023-07-02T01:47:16;100728.84;;;15.52;92.03
71966;BME280;59836;52.132;5.442;2023-07-02T01:49:52;100731.06;;;15.50;92.01
71966;BME280;59836;52.132;5.442;2023-07-02T01:52:19;100727.03;;;15.47;91.59
71966;BME280;59836;52.132;5.442;2023-07-02T01:54:45;100733.72;;;15.41;91.93
71966;BME280;59836;52.132;5.442;2023-07-02T01:57:22;100732.72;;;15.37;91.49
71966;BME280;59836;52.132;5.442;2023-07-02T02:00:16;100732.53;;;15.33;91.53
71966;BME280;59836;52.132;5.442;2023-07-02T02:02:44;100731.00;;;15.27;91.66
71966;BME280;59836;52.132;5.442;2023-07-02T02:05:10;100733.75;;;15.27;91.04
71966;BME280;59836;52.132;5.442;2023-07-02T02:07:45;100735.75;;;15.22;91.22
71966;BME280;59836;52.132;5.442;2023-07-02T02:10:17;100735.56;;;15.18;90.59
71966;BME280;59836;52.132;5.442;2023-07-02T02:12:44;100740.00;;;15.14;90.75
71966;BME280;59836;52.132;5.442;2023-07-02T02:15:11;100745.25;;;15.10;90.95
71966;BME280;59836;52.132;5.442;2023-07-02T02:17:40;100737.16;;;15.05;90.80
71966;BME280;59836;52.132;5.442;2023-07-02T02:20:11;100741.31;;;15.02;90.65
71966;BME280;59836;52.132;5.442;2023-07-02T02:22:48;100743.03;;;14.98;90.03
71966;BME280;59836;52.132;5.442;2023-07-02T02:25:25;100743.63;;;14.95;90.71
71966;BME280;59836;52.132;5.442;2023-07-02T02:28:06;100745.63;;;14.89;90.64
71966;BME280;59836;52.132;5.442;2023-07-02T02:30:37;100743.81;;;14.85;90.28
71966;BME280;59836;52.132;5.442;2023-07-02T02:33:10;100739.56;;;14.79;90.22
71966;BME280;59836;52.132;5.442;2023-07-02T02:35:36;100755.16;;;14.78;90.32
71966;BME280;59836;52.132;5.442;2023-07-02T02:38:03;100758.78;;;14.73;90.08
71966;BME280;59836;52.132;5.442;2023-07-02T02:40:33;100755.00;;;14.69;90.08
71966;BME280;59836;52.132;5.442;2023-07-02T02:43:06;100759.41;;;14.65;89.97
71966;BME280;59836;52.132;5.442;2023-07-02T02:45:33;100761.13;;;14.61;90.01
71966;BME280;59836;52.132;5.442;2023-07-02T02:47:59;100755.97;;;14.59;90.15
71966;BME280;59836;52.132;5.442;2023-07-02T02:50:32;100754.88;;;14.60;89.68
71966;BME280;59836;52.132;5.442;2023-07-02T02:53:12;100763.16;;;14.55;89.46
71966;BME280;59836;52.132;5.442;2023-07-02T02:55:39;100761.28;;;14.51;89.42
71966;BME280;59836;52.132;5.442;2023-07-02T02:58:05;100758.88;;;14.49;89.63
71966;BME280;59836;52.132;5.442;2023-07-02T03:00:32;100757.25;;;14.48;89.71
71966;BME280;59836;52.132;5.442;2023-07-02T03:02:59;100756.75;;;14.46;89.46
71966;BME280;59836;52.132;5.442;2023-07-02T03:05:34;100763.59;;;14.43;90.03
71966;BME280;59836;52.132;5.442;2023-07-02T03:08:08;100769.38;;;14.42;89.72
71966;BME280;59836;52.132;5.442;2023-07-02T03:10:47;100763.09;;;14.41;89.72
71966;BME280;59836;52.132;5.442;2023-07-02T03:13:15;100764.69;;;14.42;89.82
71966;BME280;59836;52.132;5.442;2023-07-02T03:15:43;100774.59;;;14.38;89.95
71966;BME280;59836;52.132;5.442;2023-07-02T03:18:09;100764.78;;;14.37;90.28
71966;BME280;59836;52.132;5.442;2023-07-02T03:20:46;100776.00;;;14.36;89.69
71966;BME280;59836;52.132;5.442;2023-07-02T03:23:18;100775.19;;;14.35;90.10
71966;BME280;59836;52.132;5.442;2023-07-02T03:25:44;100779.03;;;14.34;90.05
71966;BME280;59836;52.132;5.442;2023-07-02T03:28:27;100781.75;;;14.34;89.86
71966;BME280;59836;52.132;5.442;2023-07-02T03:30:54;100781.22;;;14.32;89.98
71966;BME280;59836;52.132;5.442;2023-07-02T03:33:21;100781.84;;;14.29;89.79
71966;BME280;59836;52.132;5.442;2023-07-02T03:35:48;100787.59;;;14.27;89.86
71966;BME280;59836;52.132;5.442;2023-07-02T03:38:14;100785.44;;;14.24;89.58
71966;BME280;59836;52.132;5.442;2023-07-02T03:40:43;100791.44;;;14.26;89.38
71966;BME280;59836;52.132;5.442;2023-07-02T03:43:25;100781.63;;;14.25;89.53
71966;BME280;59836;52.132;5.442;2023-07-02T03:45:52;100781.34;;;14.27;89.59
71966;BME280;59836;52.132;5.442;2023-07-02T03:48:19;100786.28;;;14.25;88.93
71966;BME280;59836;52.132;5.442;2023-07-02T03:50:48;100792.31;;;14.22;88.91
71966;BME280;59836;52.132;5.442;2023-07-02T03:53:15;100797.78;;;14.22;88.98
71966;BME280;59836;52.132;5.442;2023-07-02T03:55:46;100805.44;;;14.20;89.55
71966;BME280;59836;52.132;5.442;2023-07-02T03:58:17;100805.13;;;14.21;89.64
71966;BME280;59836;52.132;5.442;2023-07-02T04:00:45;100800.00;;;14.20;89.54
71966;BME280;59836;52.132;5.442;2023-07-02T04:03:12;100801.09;;;14.19;89.71
71966;BME280;59836;52.132;5.442;2023-07-02T04:05:58;100800.00;;;14.20;89.41
71966;BME280;59836;52.132;5.442;2023-07-02T04:08:38;100807.34;;;14.19;89.23
71966;BME280;59836;52.132;5.442;2023-07-02T04:11:04;100813.63;;;14.20;89.25
71966;BME280;59836;52.132;5.442;2023-07-02T04:13:42;100810.38;;;14.17;89.68
71966;BME280;59836;52.132;5.442;2023-07-02T04:16:09;100805.44;;;14.20;89.64
71966;BME280;59836;52.132;5.442;2023-07-02T04:18:35;100807.88;;;14.21;89.79
71966;BME280;59836;52.132;5.442;2023-07-02T04:21:06;100811.41;;;14.22;89.70
71966;BME280;59836;52.132;5.442;2023-07-02T04:23:33;100818.50;;;14.23;89.96
71966;BME280;59836;52.132;5.442;2023-07-02T04:26:13;100826.69;;;14.23;90.08
71966;BME280;59836;52.132;5.442;2023-07-02T04:29:04;100822.03;;;14.23;90.40
71966;BME280;59836;52.132;5.442;2023-07-02T04:31:31;100826.09;;;14.26;90.79
71966;BME280;59836;52.132;5.442;2023-07-02T04:33:58;100829.34;;;14.28;90.39
71966;BME280;59836;52.132;5.442;2023-07-02T04:36:38;100827.72;;;14.27;90.42
71966;BME280;59836;52.132;5.442;2023-07-02T04:39:04;100833.69;;;14.29;90.39
71966;BME280;59836;52.132;5.442;2023-07-02T04:41:31;100830.97;;;14.29;90.73
71966;BME280;59836;52.132;5.442;2023-07-02T04:44:01;100826.00;;;14.31;90.16
71966;BME280;59836;52.132;5.442;2023-07-02T04:46:31;100831.97;;;14.33;89.51
71966;BME280;59836;52.132;5.442;2023-07-02T04:49:00;100833.38;;;14.30;89.77
71966;BME280;59836;52.132;5.442;2023-07-02T04:51:37;100832.59;;;14.30;90.09
71966;BME280;59836;52.132;5.442;2023-07-02T04:54:04;100836.63;;;14.32;89.88
71966;BME280;59836;52.132;5.442;2023-07-02T04:56:31;100835.22;;;14.35;89.46
71966;BME280;59836;52.132;5.442;2023-07-02T04:59:09;100843.91;;;14.37;90.04
71966;BME280;59836;52.132;5.442;2023-07-02T05:01:37;100845.53;;;14.38;90.59
71966;BME280;59836;52.132;5.442;2023-07-02T05:04:22;100836.25;;;14.39;90.12
71966;BME280;59836;52.132;5.442;2023-07-02T05:06:48;100844.16;;;14.41;90.23
71966;BME280;59836;52.132;5.442;2023-07-02T05:09:18;100837.84;;;14.40;90.35
71966;BME280;59836;52.132;5.442;2023-07-02T05:11:44;100839.47;;;14.41;90.45
71966;BME280;59836;52.132;5.442;2023-07-02T05:14:17;100841.94;;;14.43;90.90
71966;BME280;59836;52.132;5.442;2023-07-02T05:16:52;100844.88;;;14.46;91.34
71966;BME280;59836;52.132;5.442;2023-07-02T05:19:19;100848.63;;;14.51;90.88
71966;BME280;59836;52.132;5.442;2023-07-02T05:21:45;100848.63;;;14.51;91.06
71966;BME280;59836;52.132;5.442;2023-07-02T05:24:25;100858.94;;;14.54;91.39
71966;BME280;59836;52.132;5.442;2023-07-02T05:26:51;100849.66;;;14.55;91.79
71966;BME280;59836;52.132;5.442;2023-07-02T05:29:18;100851.28;;;14.56;91.64
71966;BME280;59836;52.132;5.442;2023-07-02T05:31:45;100857.75;;;14.60;92.05
71966;BME280;59836;52.132;5.442;2023-07-02T05:34:11;100848.97;;;14.63;91.96
71966;BME280;59836;52.132;5.442;2023-07-02T05:36:52;100856.59;;;14.66;91.84
71966;BME280;59836;52.132;5.442;2023-07-02T05:39:20;100864.22;;;14.69;91.50
71966;BME280;59836;52.132;5.442;2023-07-02T05:41:56;100864.94;;;14.75;91.56
71966;BME280;59836;52.132;5.442;2023-07-02T05:44:42;100865.75;;;14.75;91.28
71966;BME280;59836;52.132;5.442;2023-07-02T05:47:10;100864.66;;;14.76;90.97
71966;BME280;59836;52.132;5.442;2023-07-02T05:49:38;100873.84;;;14.81;91.21
71966;BME280;59836;52.132;5.442;2023-07-02T05:52:05;100873.25;;;14.84;91.27
71966;BME280;59836;52.132;5.442;2023-07-02T05:54:34;100869.44;;;14.85;92.01
71966;BME280;59836;52.132;5.442;2023-07-02T05:57:00;100865.00;;;14.89;91.93
71966;BME280;59836;52.132;5.442;2023-07-02T05:59:26;100873.38;;;14.93;91.55
71966;BME280;59836;52.132;5.442;2023-07-02T06:01:57;100867.31;;;14.96;91.83
71966;BME280;59836;52.132;5.442;2023-07-02T06:04:31;100874.31;;;15.02;92.01
71966;BME280;59836;52.132;5.442;2023-07-02T06:06:59;100874.25;;;15.07;91.90
71966;BME280;59836;52.132;5.442;2023-07-02T06:09:28;100879.94;;;15.11;92.08
71966;BME280;59836;52.132;5.442;2023-07-02T06:12:15;100882.56;;;15.16;91.96
71966;BME280;59836;52.132;5.442;2023-07-02T06:14:49;100880.88;;;15.20;91.97
71966;BME280;59836;52.132;5.442;2023-07-02T06:20:21;100888.66;;;15.27;89.19
71966;BME280;59836;52.132;5.442;2023-07-02T06:22:56;100893.25;;;15.31;89.43
71966;BME280;59836;52.132;5.442;2023-07-02T06:25:33;100889.91;;;15.34;89.98
71966;BME280;59836;52.132;5.442;2023-07-02T06:28:00;100886.78;;;15.41;90.51
71966;BME280;59836;52.132;5.442;2023-07-02T06:30:46;100897.28;;;15.48;90.71
71966;BME280;59836;52.132;5.442;2023-07-02T06:33:13;100898.81;;;15.54;90.50
71966;BME280;59836;52.132;5.442;2023-07-02T06:35:40;100902.06;;;15.56;90.27
71966;BME280;59836;52.132;5.442;2023-07-02T06:38:06;100896.00;;;15.59;90.93
71966;BME280;59836;52.132;5.442;2023-07-02T06:40:44;100893.16;;;15.64;91.02
71966;BME280;59836;52.132;5.442;2023-07-02T06:43:13;100890.44;;;15.64;91.11
71966;BME280;59836;52.132;5.442;2023-07-02T06:45:39;100906.84;;;15.64;90.12
71966;BME280;59836;52.132;5.442;2023-07-02T06:48:06;100907.94;;;15.63;90.25
71966;BME280;59836;52.132;5.442;2023-07-02T06:50:36;100910.41;;;15.65;90.19
71966;BME280;59836;52.132;5.442;2023-07-02T06:53:02;100916.66;;;15.65;90.34
71966;BME280;59836;52.132;5.442;2023-07-02T06:55:32;100926.47;;;15.67;90.87
71966;BME280;59836;52.132;5.442;2023-07-02T06:57:59;100928.69;;;15.64;87.40
71966;BME280;59836;52.132;5.442;2023-07-02T07:00:25;100924.84;;;15.65;87.22
71966;BME280;59836;52.132;5.442;2023-07-02T07:02:52;100929.13;;;15.72;86.28
71966;BME280;59836;52.132;5.442;2023-07-02T07:05:18;100927.72;;;15.74;87.18
71966;BME280;59836;52.132;5.442;2023-07-02T07:08:01;100930.88;;;15.82;87.88
71966;BME280;59836;52.132;5.442;2023-07-02T07:10:41;100943.94;;;15.85;87.64
71966;BME280;59836;52.132;5.442;2023-07-02T07:13:08;100939.81;;;15.87;87.59
71966;BME280;59836;52.132;5.442;2023-07-02T07:15:49;100947.91;;;15.92;86.02
71966;BME280;59836;52.132;5.442;2023-07-02T07:18:16;100946.19;;;15.97;86.55
71966;BME280;59836;52.132;5.442;2023-07-02T07:20:45;100948.81;;;16.02;85.37
71966;BME280;59836;52.132;5.442;2023-07-02T07:23:12;100961.06;;;16.04;86.15
71966;BME280;59836;52.132;5.442;2023-07-02T07:25:38;100953.69;;;16.05;85.40
71966;BME280;59836;52.132;5.442;2023-07-02T07:28:05;100962.41;;;16.07;83.73
71966;BME280;59836;52.132;5.442;2023-07-02T07:30:32;100964.22;;;16.12;85.25
71966;BME280;59836;52.132;5.442;2023-07-02T07:33:02;100962.19;;;16.17;85.74
71966;BME280;59836;52.132;5.442;2023-07-02T07:35:31;100975.78;;;16.22;84.44
71966;BME280;59836;52.132;5.442;2023-07-02T07:38:03;100966.44;;;16.23;81.43
71966;BME280;59836;52.132;5.442;2023-07-02T07:40:30;100971.41;;;16.21;83.37
71966;BME280;59836;52.132;5.442;2023-07-02T07:42:56;100975.28;;;16.20;83.94
71966;BME280;59836;52.132;5.442;2023-07-02T07:45:23;100970.09;;;16.19;81.14
71966;BME280;59836;52.132;5.442;2023-07-02T07:47:50;100967.56;;;16.22;80.87
71966;BME280;59836;52.132;5.442;2023-07-02T07:50:16;100969.69;;;16.26;78.33
71966;BME280;59836;52.132;5.442;2023-07-02T07:52:43;100973.94;;;16.32;80.17
71966;BME280;59836;52.132;5.442;2023-07-02T07:55:09;100972.50;;;16.34;78.76
71966;BME280;59836;52.132;5.442;2023-07-02T07:57:37;100976.75;;;16.41;79.73
71966;BME280;59836;52.132;5.442;2023-07-02T08:00:04;100980.31;;;16.41;75.81
71966;BME280;59836;52.132;5.442;2023-07-02T08:02:34;100971.00;;;16.42;78.01
71966;BME280;59836;52.132;5.442;2023-07-02T08:05:02;100990.78;;;16.39;75.63
71966;BME280;59836;52.132;5.442;2023-07-02T08:07:30;100982.06;;;16.37;77.13
71966;BME280;59836;52.132;5.442;2023-07-02T08:09:57;100988.13;;;16.34;75.53
71966;BME280;59836;52.132;5.442;2023-07-02T08:12:23;100983.69;;;16.38;76.69
71966;BME280;59836;52.132;5.442;2023-07-02T08:14:50;100978.56;;;16.45;76.47
71966;BME280;59836;52.132;5.442;2023-07-02T08:17:16;100990.94;;;16.57;73.20
71966;BME280;59836;52.132;5.442;2023-07-02T08:19:44;100990.22;;;16.65;73.83
71966;BME280;59836;52.132;5.442;2023-07-02T08:22:10;100981.59;;;16.72;73.48
71966;BME280;59836;52.132;5.442;2023-07-02T08:24:40;100991.59;;;16.76;77.81
71966;BME280;59836;52.132;5.442;2023-07-02T08:27:09;100989.38;;;16.78;77.26
71966;BME280;59836;52.132;5.442;2023-07-02T08:29:36;100989.97;;;16.75;73.41
71966;BME280;59836;52.132;5.442;2023-07-02T08:32:03;100988.69;;;16.73;73.80
71966;BME280;59836;52.132;5.442;2023-07-02T08:34:30;100999.31;;;16.74;74.24
71966;BME280;59836;52.132;5.442;2023-07-02T08:36:56;100994.34;;;16.76;74.73
71966;BME280;59836;52.132;5.442;2023-07-02T08:39:23;100992.94;;;16.79;77.94
71966;BME280;59836;52.132;5.442;2023-07-02T08:41:57;101006.91;;;16.77;73.83
71966;BME280;59836;52.132;5.442;2023-07-02T08:44:24;101013.00;;;16.74;72.69
71966;BME280;59836;52.132;5.442;2023-07-02T08:46:51;101006.84;;;16.68;74.53
71966;BME280;59836;52.132;5.442;2023-07-02T08:49:21;101019.81;;;16.63;72.75
71966;BME280;59836;52.132;5.442;2023-07-02T08:51:48;101024.50;;;16.62;71.52
71966;BME280;59836;52.132;5.442;2023-07-02T08:54:17;101018.59;;;16.69;69.90
71966;BME280;59836;52.132;5.442;2023-07-02T08:56:44;101022.22;;;16.78;71.36
71966;BME280;59836;52.132;5.442;2023-07-02T08:59:22;101010.56;;;16.87;71.21
71966;BME280;59836;52.132;5.442;2023-07-02T09:01:58;101012.56;;;16.95;75.11
71966;BME280;59836;52.132;5.442;2023-07-02T09:04:27;101021.69;;;17.04;71.39
71966;BME280;59836;52.132;5.442;2023-07-02T09:07:08;101012.91;;;17.16;71.37
71966;BME280;59836;52.132;5.442;2023-07-02T09:09:48;101012.63;;;17.18;72.76
71966;BME280;59836;52.132;5.442;2023-07-02T09:12:39;101008.75;;;17.19;72.84
71966;BME280;59836;52.132;5.442;2023-07-02T09:15:06;101018.59;;;17.20;72.19
71966;BME280;59836;52.132;5.442;2023-07-02T09:17:36;101023.47;;;17.23;71.02
71966;BME280;59836;52.132;5.442;2023-07-02T09:20:07;101025.09;;;17.24;70.80
71966;BME280;59836;52.132;5.442;2023-07-02T09:22:36;101025.72;;;17.21;69.19
71966;BME280;59836;52.132;5.442;2023-07-02T09:25:08;101028.13;;;17.22;68.44
71966;BME280;59836;52.132;5.442;2023-07-02T09:27:38;101021.91;;;17.31;68.82
71966;BME280;59836;52.132;5.442;2023-07-02T09:30:19;101018.13;;;17.40;68.27
71966;BME280;59836;52.132;5.442;2023-07-02T09:32:46;101008.31;;;17.48;67.83
71966;BME280;59836;52.132;5.442;2023-07-02T09:35:13;101021.06;;;17.53;65.80
71966;BME280;59836;52.132;5.442;2023-07-02T09:37:44;101003.81;;;17.52;65.79
71966;BME280;59836;52.132;5.442;2023-07-02T09:40:11;101011.72;;;17.54;65.88
71966;BME280;59836;52.132;5.442;2023-07-02T09:42:38;101029.19;;;17.58;66.32
71966;BME280;59836;52.132;5.442;2023-07-02T09:45:08;101013.22;;;17.60;66.51
71966;BME280;59836;52.132;5.442;2023-07-02T09:47:40;101021.44;;;17.60;68.56
71966;BME280;59836;52.132;5.442;2023-07-02T09:50:10;101014.97;;;17.56;65.57
71966;BME280;59836;52.132;5.442;2023-07-02T09:52:38;101024.16;;;17.51;62.63
71966;BME280;59836;52.132;5.442;2023-07-02T09:55:21;101020.72;;;17.46;63.40
71966;BME280;59836;52.132;5.442;2023-07-02T09:57:47;101025.59;;;17.49;64.02
71966;BME280;59836;52.132;5.442;2023-07-02T10:00:14;101021.28;;;17.56;61.53
71966;BME280;59836;52.132;5.442;2023-07-02T10:02:46;101011.47;;;17.64;62.57
71966;BME280;59836;52.132;5.442;2023-07-02T10:05:31;101019.75;;;17.73;62.47
71966;BME280;59836;52.132;5.442;2023-07-02T10:08:11;101024.66;;;17.85;59.70
71966;BME280;59836;52.132;5.442;2023-07-02T10:10:40;101029.88;;;17.95;59.32
71966;BME280;59836;52.132;5.442;2023-07-02T10:13:10;101033.66;;;17.99;58.58
71966;BME280;59836;52.132;5.442;2023-07-02T10:15:39;101030.75;;;18.05;57.47
71966;BME280;59836;52.132;5.442;2023-07-02T10:18:11;101033.03;;;18.11;58.46
71966;BME280;59836;52.132;5.442;2023-07-02T10:20:47;101043.72;;;18.13;58.01
71966;BME280;59836;52.132;5.442;2023-07-02T10:23:14;101036.28;;;18.13;59.25
71966;BME280;59836;52.132;5.442;2023-07-02T10:25:43;101028.50;;;18.07;57.17
71966;BME280;59836;52.132;5.442;2023-07-02T10:28:14;101038.03;;;18.09;57.30
71966;BME280;59836;52.132;5.442;2023-07-02T10:30:46;101033.72;;;18.17;60.30
71966;BME280;59836;52.132;5.442;2023-07-02T10:33:17;101044.06;;;18.20;59.87
71966;BME280;59836;52.132;5.442;2023-07-02T10:35:47;101042.16;;;18.29;56.06
71966;BME280;59836;52.132;5.442;2023-07-02T10:38:27;101039.28;;;18.35;58.02
71966;BME280;59836;52.132;5.442;2023-07-02T10:40:58;101044.50;;;18.45;56.86
71966;BME280;59836;52.132;5.442;2023-07-02T10:43:27;101040.13;;;18.53;57.06
71966;BME280;59836;52.132;5.442;2023-07-02T10:46:05;101053.88;;;18.62;57.38
71966;BME280;59836;52.132;5.442;2023-07-02T10:48:32;101056.78;;;18.56;55.59
71966;BME280;59836;52.132;5.442;2023-07-02T10:51:12;101050.31;;;18.52;56.83
71966;BME280;59836;52.132;5.442;2023-07-02T10:53:45;101047.25;;;18.54;59.00
71966;BME280;59836;52.132;5.442;2023-07-02T10:56:16;101049.66;;;18.55;57.90
71966;BME280;59836;52.132;5.442;2023-07-02T10:58:43;101048.72;;;18.51;56.85
71966;BME280;59836;52.132;5.442;2023-07-02T11:01:10;101053.03;;;18.43;57.59
71966;BME280;59836;52.132;5.442;2023-07-02T11:03:37;101056.09;;;18.42;58.37
71966;BME280;59836;52.132;5.442;2023-07-02T11:06:04;101046.41;;;18.36;57.75
71966;BME280;59836;52.132;5.442;2023-07-02T11:08:35;101058.66;;;18.29;56.89
71966;BME280;59836;52.132;5.442;2023-07-02T11:11:08;101063.78;;;18.22;56.37
71966;BME280;59836;52.132;5.442;2023-07-02T11:13:44;101063.44;;;18.15;56.28
71966;BME280;59836;52.132;5.442;2023-07-02T11:16:40;101070.66;;;18.11;56.66
71966;BME280;59836;52.132;5.442;2023-07-02T11:19:08;101066.31;;;18.10;55.48
71966;BME280;59836;52.132;5.442;2023-07-02T11:21:35;101077.28;;;18.10;55.43
71966;BME280;59836;52.132;5.442;2023-07-02T11:24:06;101070.66;;;18.11;57.00
71966;BME280;59836;52.132;5.442;2023-07-02T11:26:35;101065.41;;;18.23;56.71
71966;BME280;59836;52.132;5.442;2023-07-02T11:29:02;101059.63;;;18.34;57.75
71966;BME280;59836;52.132;5.442;2023-07-02T11:31:28;101063.38;;;18.38;56.44
71966;BME280;59836;52.132;5.442;2023-07-02T11:33:56;101068.38;;;18.36;55.75
71966;BME280;59836;52.132;5.442;2023-07-02T11:36:24;101066.75;;;18.35;56.79
71966;BME280;59836;52.132;5.442;2023-07-02T11:38:55;101063.84;;;18.40;56.68
71966;BME280;59836;52.132;5.442;2023-07-02T11:41:21;101067.44;;;18.49;57.54
71966;BME280;59836;52.132;5.442;2023-07-02T11:43:48;101070.84;;;18.64;55.83
71966;BME280;59836;52.132;5.442;2023-07-02T11:46:14;101070.88;;;18.72;55.93
71966;BME280;59836;52.132;5.442;2023-07-02T11:48:41;101058.97;;;18.86;54.63
71966;BME280;59836;52.132;5.442;2023-07-02T11:51:08;101065.59;;;18.94;52.74
71966;BME280;59836;52.132;5.442;2023-07-02T11:53:34;101058.69;;;18.96;52.72
71966;BME280;59836;52.132;5.442;2023-07-02T11:56:01;101061.09;;;18.98;53.25
71966;BME280;59836;52.132;5.442;2023-07-02T11:58:27;101061.09;;;18.98;53.65
71966;BME280;59836;52.132;5.442;2023-07-02T12:00:54;101062.06;;;19.02;53.05
71966;BME280;59836;52.132;5.442;2023-07-02T12:03:20;101071.78;;;18.99;53.08
71966;BME280;59836;52.132;5.442;2023-07-02T12:05:47;101074.16;;;18.92;52.60
71966;BME280;59836;52.132;5.442;2023-07-02T12:08:14;101081.25;;;18.84;51.72
71966;BME280;59836;52.132;5.442;2023-07-02T12:10:40;101071.22;;;18.80;52.44
71966;BME280;59836;52.132;5.442;2023-07-02T12:13:07;101085.28;;;18.78;53.23
71966;BME280;59836;52.132;5.442;2023-07-02T12:15:33;101074.28;;;18.78;53.56
71966;BME280;59836;52.132;5.442;2023-07-02T12:17:59;101079.78;;;18.78;53.63
71966;BME280;59836;52.132;5.442;2023-07-02T12:20:26;101072.66;;;18.77;53.18
71966;BME280;59836;52.132;5.442;2023-07-02T12:22:52;101075.91;;;18.79;53.26
71966;BME280;59836;52.132;5.442;2023-07-02T12:25:19;101081.59;;;18.83;53.08
71966;BME280;59836;52.132;5.442;2023-07-02T12:27:46;101082.91;;;18.94;55.00
71966;BME280;59836;52.132;5.442;2023-07-02T12:30:12;101087.94;;;19.01;53.71
71966;BME280;59836;52.132;5.442;2023-07-02T12:32:43;101095.06;;;19.02;54.21
71966;BME280;59836;52.132;5.442;2023-07-02T12:35:11;101092.00;;;19.03;52.84
71966;BME280;59836;52.132;5.442;2023-07-02T12:37:49;101093.28;;;18.97;52.32
71966;BME280;59836;52.132;5.442;2023-07-02T12:40:16;101087.56;;;18.94;51.11
71966;BME280;59836;52.132;5.442;2023-07-02T12:42:44;101090.31;;;18.94;50.60
71966;BME280;59836;52.132;5.442;2023-07-02T12:45:12;101076.94;;;19.01;51.39
71966;BME280;59836;52.132;5.442;2023-07-02T12:47:40;101074.88;;;19.07;51.92
71966;BME280;59836;52.132;5.442;2023-07-02T12:50:08;101090.88;;;19.13;51.60
71966;BME280;59836;52.132;5.442;2023-07-02T12:52:35;101079.22;;;19.16;51.86
71966;BME280;59836;52.132;5.442;2023-07-02T12:55:02;101093.47;;;19.18;53.32
71966;BME280;59836;52.132;5.442;2023-07-02T12:57:28;101091.34;;;19.15;51.81
71966;BME280;59836;52.132;5.442;2023-07-02T12:59:55;101084.72;;;19.16;51.79
71966;BME280;59836;52.132;5.442;2023-07-02T13:02:23;101096.22;;;19.18;52.46
71966;BME280;59836;52.132;5.442;2023-07-02T13:04:50;101092.97;;;19.16;52.56
71966;BME280;59836;52.132;5.442;2023-07-02T13:07:17;101099.44;;;19.21;51.44
71966;BME280;59836;52.132;5.442;2023-07-02T13:09:43;101095.72;;;19.25;51.61
71966;BME280;59836;52.132;5.442;2023-07-02T13:12:10;101097.03;;;19.28;49.71